• Join FlightAware (Why Join?)
  • Login
  • US Flag 
10:10AM EDT


 

Airport Tracker/Info


-or-


 

Live Flight TrackerFlight Track Log ✈ N42HN ✈ 01-Jul-2013 ✈ KLZU - KABQ

Flight Track Log - Related Links

Times and Time Zones

All times are in EDT time to prevent confusion due to time zone crossing. See the N42HN flight status page for this flight to view local times or setup timezone preferences in your user account.

Time Position Orientation Groundspeed Altitude Reporting Facility
EDT Latitude Longitude Course Direction KTS MPH feet Rate Location/Type
09:55AM 33.9667 -84.0000 270° West 191 220 2,100  Level Atlanta TRACON
09:56AM 33.9667 -84.0667 270° West 198 228 4,700 2,880 Climbing Atlanta TRACON
09:57AM 33.9500 -84.1333 253° West 213 245 7,600 2,340 Climbing Atlanta TRACON
09:59AM 33.9297 -84.2617 259° West 241 277 10,900 2,280 Climbing Atlanta Center
10:00AM 33.8961 -84.3492 245° Southwest 274 315 13,700 2,640 Climbing Atlanta Center
10:02AM 33.9225 -84.5569 279° West 299 344 18,900 2,400 Climbing Atlanta Center
10:03AM 33.9389 -84.6572 281° West 306 352 21,000 1,800 Climbing Atlanta Center
10:04AM 33.9528 -84.7650 279° West 322 371 22,600 1,800 Climbing Atlanta Center
10:05AM 33.9708 -84.8756 281° West 332 382 24,600 1,680 Climbing Atlanta Center
10:06AM 33.9828 -84.9733 278° West 337 388 26,000 1,140 Climbing Atlanta Center
10:07AM 34.0006 -85.0861 281° West 337 388 26,900 1,140 Climbing Atlanta Center
10:08AM 34.0164 -85.2042 279° West 352 405 28,300 1,380 Climbing Atlanta Center
10:09AM 34.0317 -85.3197 279° West 352 405 29,700 1,200 Climbing Atlanta Center
10:10AM 34.0472 -85.4378 279° West 352 405 30,800 720 Climbing Atlanta Center
10:11AM 34.0647 -85.5558 280° West 358 412 31,200 360 Climbing Atlanta Center
10:12AM 34.0817 -85.6842 279° West 378 435 31,600 600 Climbing Atlanta Center
10:13AM 34.0969 -85.7997 279° West 389 448 32,500 1,200 Climbing Atlanta Center
10:14AM 34.1136 -85.9356 278° West 389 448 34,000 1,020 Climbing Atlanta Center
10:15AM 34.1283 -86.0589 278° West 389 448 34,600 540 Climbing Atlanta Center
10:16AM 34.1469 -86.1875 280° West 389 448 35,100 480 Climbing Atlanta Center
10:17AM 34.1614 -86.3183 278° West 389 448 35,600 480 Climbing Atlanta Center
10:18AM 34.1797 -86.4494 280° West 389 448 36,100 480 Climbing Atlanta Center
10:19AM 34.1958 -86.5778 279° West 389 448 36,600 480 Climbing Atlanta Center
10:20AM 34.2119 -86.7064 279° West 389 448 37,100 660 Climbing Atlanta Center
10:21AM 34.2272 -86.8378 278° West 389 448 38,000 480 Climbing Memphis Center
10:23AM 34.2592 -87.0928 279° West 373 429 38,700 360 Climbing Memphis Center
10:24AM 34.2686 -87.2156 275° West 373 429 39,200 360 Climbing Memphis Center
10:25AM 34.2906 -87.3456 282° West 386 444 39,500 300 Climbing Memphis Center
10:26AM 34.3039 -87.4681 278° West 381 438 39,900 240 Climbing Memphis Center
10:27AM 34.3172 -87.5933 277° West 381 438 40,000  Climbing Memphis Center
10:28AM 34.3325 -87.7211 278° West 386 444 40,000  Level Memphis Center
10:29AM 34.3475 -87.8464 278° West 386 444 40,000  Level Memphis Center
10:30AM 34.3625 -87.9719 278° West 386 444 40,000  Level Memphis Center
10:32AM 34.3903 -88.2353 277° West 391 450 40,000  Level Memphis Center
10:33AM 34.4050 -88.3658 278° West 397 457 40,000  Level Memphis Center
10:34AM 34.4194 -88.4964 278° West 402 463 40,000  Level Memphis Center
10:35AM 34.4339 -88.6297 278° West 402 463 40,000  Level Memphis Center
10:36AM 34.4483 -88.7628 278° West 407 468 40,000  Level Memphis Center
10:37AM 34.4603 -88.8783 277° West 401 461 40,000  Level Memphis Center
10:38AM 34.4744 -89.0244 277° West 395 455 40,000  Level Memphis Center
10:39AM 34.4883 -89.1578 277° West 407 468 40,000  Level Memphis Center
10:40AM 34.5019 -89.2936 277° West 407 468 40,000  Level Memphis Center
10:41AM 34.5156 -89.4294 277° West 407 468 40,000  Level Memphis Center
10:42AM 34.5311 -89.5656 278° West 407 468 40,000  Level Memphis Center
10:43AM 34.5425 -89.7042 276° West 407 468 40,000  Level Memphis Center
10:44AM 34.5556 -89.8275 277° West 413 475 40,000  Level Memphis Center
10:45AM 34.5686 -89.9636 277° West 413 475 40,000  Level Memphis Center
10:46AM 34.5836 -90.0997 278° West 408 470 40,000  Level Memphis Center
10:47AM 34.5964 -90.2361 277° West 403 464 40,000  Level Memphis Center
10:48AM 34.6108 -90.3875 277° West 408 470 40,000  Level Memphis Center
10:49AM 34.6233 -90.5211 277° West 408 470 40,000  Level Memphis Center
10:50AM 34.6356 -90.6550 276° West 408 470 40,000  Level Memphis Center
10:51AM 34.6456 -90.7914 275° West 408 470 40,000  Level Memphis Center
10:53AM 34.6717 -91.0617 277° West 408 470 40,000  Level Memphis Center
10:54AM 34.6833 -91.1956 276° West 403 464 40,000  Level Memphis Center
10:55AM 34.6969 -91.3322 277° West 408 470 40,000  Level Memphis Center
10:56AM 34.7064 -91.4561 275° West 408 470 40,000  Level Memphis Center
10:57AM 34.7197 -91.5928 277° West 408 470 40,000  Level Memphis Center
10:58AM 34.7306 -91.7394 275° West 408 470 40,000  Level Memphis Center
10:59AM 34.7436 -91.8736 277° West 408 470 40,000  Level Memphis Center
11:00AM 34.7544 -92.0103 276° West 408 470 40,000  Level Memphis Center
11:01AM 34.7650 -92.1519 275° West 408 470 40,000  Level Memphis Center
11:02AM 34.7733 -92.2911 274° West 408 470 40,000  Level Memphis Center
11:03AM 34.7836 -92.4256 275° West 408 470 40,000  Level Memphis Center
11:04AM 34.7961 -92.5622 276° West 408 470 40,000  Level Memphis Center
11:05AM 34.8061 -92.7017 275° West 408 470 40,000  Level Memphis Center
11:06AM 34.8158 -92.8386 275° West 408 470 40,000  Level Memphis Center
11:07AM 34.8236 -92.9753 274° West 408 470 40,000  Level Memphis Center
11:08AM 34.8353 -93.1125 276° West 408 470 40,000  Level Memphis Center
11:09AM 34.8425 -93.2492 274° West 408 470 40,000  Level Memphis Center
11:10AM 34.8539 -93.3839 276° West 403 464 40,000  Level Memphis Center
11:11AM 34.8631 -93.5181 275° West 403 464 40,000  Level Memphis Center
11:12AM 34.8700 -93.6550 274° West 408 470 40,000  Level Memphis Center
11:13AM 34.8789 -93.7872 275° West 408 470 40,000  Level Memphis Center
11:14AM 34.8917 -93.9269 276° West 403 464 40,000  Level Memphis Center
11:15AM 34.8964 -94.0561 273° West 410 472 40,000  Level Memphis Center
11:16AM 34.9067 -94.1933 275° West 404 465 40,000  Level Memphis Center
11:17AM 34.9131 -94.3253 273° West 404 465 40,000  Level Memphis Center
11:18AM 34.9242 -94.5014 274° West 426 490 40,000  Level Fort Worth Center
11:19AM 34.9333 -94.6353 275° West 421 484 40,000  Level Fort Worth Center
11:20AM 34.9408 -94.7869 273° West 410 472 40,000  Level Fort Worth Center
11:21AM 34.9497 -94.9208 275° West 410 472 40,000  Level Fort Worth Center
11:22AM 34.9567 -95.0575 274° West 405 466 40,000  Level Fort Worth Center
11:23AM 34.9653 -95.1892 275° West 400 460 40,000  Level Fort Worth Center
11:24AM 34.9719 -95.3308 273° West 400 460 40,000  Level Fort Worth Center
11:25AM 34.9781 -95.4625 273° West 400 460 40,000  Level Fort Worth Center
11:26AM 34.9864 -95.5992 274° West 405 466 40,000  Level Fort Worth Center
11:27AM 34.9925 -95.7306 273° West 398 458 40,000  Level Fort Worth Center
11:28AM 34.9983 -95.8625 273° West 398 458 40,000  Level Fort Worth Center
11:30AM 34.9685 -96.0483 259° West  Level FlightAware Approximate
11:30AM 35.0075 -96.1258 259° West 398 458 40,000  Level Fort Worth Center
11:31AM 35.0150 -96.2525 274° West 393 452 40,000  Level Fort Worth Center
11:32AM 35.0203 -96.3842 273° West 393 452 40,000  Level Fort Worth Center
11:33AM 35.0275 -96.5161 274° West 388 447 40,000  Level Fort Worth Center
11:34AM 35.0306 -96.6453 272° West 383 441 40,000  Level Fort Worth Center
11:35AM 35.0353 -96.7669 273° West 383 441 40,000  Level Fort Worth Center
11:36AM 35.0403 -96.8936 273° West 383 441 40,000  Level Fort Worth Center
11:37AM 35.0469 -97.0256 274° West 383 441 40,000  Level Fort Worth Center
11:38AM 35.0494 -97.1547 271° West 383 441 40,000  Level Fort Worth Center
11:39AM 35.0558 -97.2867 273° West 383 441 40,000  Level Fort Worth Center
11:40AM 35.0600 -97.3933 273° West 383 441 40,000  Level Fort Worth Center
11:41AM 35.0661 -97.5378 273° West 383 441 40,000  Level Fort Worth Center
11:42AM 35.0703 -97.6697 272° West 388 447 40,000  Level Fort Worth Center
11:43AM 35.0739 -97.8017 272° West 388 447 40,000  Level Fort Worth Center
11:44AM 35.0778 -97.9361 272° West 388 447 40,000  Level Fort Worth Center
11:45AM 35.0833 -98.0681 273° West 388 447 40,000  Level Fort Worth Center
11:46AM 35.0889 -98.2000 273° West 388 447 40,000  Level Fort Worth Center
11:47AM 35.0919 -98.3294 272° West 388 447 40,000  Level Fort Worth Center
11:48AM 35.0953 -98.4617 272° West 388 447 40,000  Level Fort Worth Center
11:49AM 35.0983 -98.5883 272° West 382 440 40,000  Level Fort Worth Center
11:51AM 35.1067 -98.8800 272° West 385 443 40,000  Level Albuquerque Center
11:52AM 35.1083 -98.9947 271° West 387 445 40,000  Level Fort Worth Center
11:53AM 35.1108 -99.1242 271° West 387 445 40,000  Level Fort Worth Center
11:54AM 35.1153 -99.2561 272° West 387 445 40,000  Level Fort Worth Center
11:57AM 35.0943 -99.3946 260° West  Level FlightAware Approximate
11:58AM 35.1242 -99.6975 260° West 388 447 40,000  Level Albuquerque Center
11:59AM 35.1250 -99.8297 270° West 388 447 40,000  Level Albuquerque Center
12:00PM 35.1272 -99.9589 271° West 384 442 40,000  Level Albuquerque Center
12:01PM 35.1297 -100.0944 271° West 388 447 40,000  Level Albuquerque Center
12:02PM 35.1322 -100.2281 271° West 391 450 40,000  Level Albuquerque Center
12:03PM 35.1344 -100.3856 271° West 391 450 40,000  Level Albuquerque Center
12:04PM 35.1350 -100.5175 270° West 391 450 40,000  Level Albuquerque Center
12:05PM 35.1364 -100.6511 271° West 393 452 40,000  Level Albuquerque Center
12:06PM 35.1364 -100.7844 270° West 393 452 40,000  Level Albuquerque Center
12:07PM 35.1383 -100.9178 271° West 394 453 40,000  Level Albuquerque Center
12:08PM 35.1386 -101.0528 270° West 397 457 40,000  Level Albuquerque Center
12:09PM 35.1386 -101.1903 270° West 402 463 40,000  Level Albuquerque Center
12:10PM 35.1394 -101.3350 270° West 407 468 40,000  Level Albuquerque Center
12:11PM 35.1444 -101.4758 273° West 412 474 40,000  Level Albuquerque Center
12:12PM 35.1425 -101.6431 269° West 411 473 40,000  Level Albuquerque Center
12:13PM 35.1389 -101.7794 268° West 414 476 40,000  Level Albuquerque Center
12:14PM 35.1386 -101.9206 270° West 414 476 40,000  Level Albuquerque Center
12:15PM 35.1392 -102.0653 270° West 410 472 40,000  Level Albuquerque Center
12:16PM 35.1383 -102.2058 270° West 411 473 40,000  Level Albuquerque Center
12:17PM 35.1381 -102.3458 270° West 412 474 40,000  Level Albuquerque Center
12:18PM 35.1367 -102.4853 269° West 413 475 40,000  Level Albuquerque Center
12:19PM 35.1369 -102.6256 270° West 413 475 40,000  Level Albuquerque Center
12:20PM 35.1353 -102.7936 269° West 414 476 40,000  Level Albuquerque Center
12:21PM 35.1339 -102.9350 269° West 416 479 40,000  Level Albuquerque Center
12:23PM 35.1000 -103.1073 270° West  Level FlightAware Approximate
12:23PM 35.1300 -103.2172 270° West 415 478 40,000  Level Albuquerque Center
12:24PM 35.1300 -103.3606 270° West 417 480 40,000  Level Albuquerque Center
12:25PM 35.1267 -103.5033 268° West 418 481 40,000  Level Albuquerque Center
12:26PM 35.1244 -103.6458 269° West 416 479 40,000  Level Albuquerque Center
12:27PM 35.1219 -103.8136 269° West 419 482 40,000  Level Albuquerque Center
12:28PM 35.1203 -103.9528 269° West 420 483 40,000 -240 Level Albuquerque Center
12:29PM 35.1194 -104.0969 270° West 423 487 39,600 -480 Descending Albuquerque Center
12:30PM 35.1164 -104.2425 269° West 428 493 39,100 -540 Descending Albuquerque Center
12:32PM 35.1136 -104.3875 269° West 429 494 38,500 -540 Descending Albuquerque Center
12:33PM 35.1114 -104.5633 269° West 432 497 38,000 -960 Descending Albuquerque Center
12:34PM 35.1056 -104.7031 267° West 433 498 36,600 -1,860 Descending Albuquerque Center
12:35PM 35.1031 -104.8564 269° West 442 509 34,200 -2,340 Descending Albuquerque Center
12:36PM 35.1003 -105.0100 269° West 448 516 31,900 -2,040 Descending Albuquerque Center
12:37PM 35.0942 -105.1619 267° West 446 513 30,000 -2,280 Descending Albuquerque Center
12:38PM 35.0947 -105.3422 270° West 450 518 27,300 -2,760 Descending Albuquerque Center
12:39PM 35.0892 -105.4989 268° West 457 526 24,400 -2,700 Descending Albuquerque Center
12:40PM 35.0828 -105.6586 267° West 465 535 21,700 -2,460 Descending Albuquerque Center
12:42PM 35.0744 -105.9583 268° West 426 490 16,900 -2,220 Descending Albuquerque Center
12:43PM 35.0692 -106.0611 266° West 417 480 15,700 -1,140 Descending Albuquerque Center
12:44PM 35.0661 -106.1997 268° West 409 471 15,000 -900 Descending Albuquerque Center
12:45PM 35.0611 -106.3517 268° West 382 440 13,800 -1,020 Descending Albuquerque Center
12:46PM 35.0194 -106.4661 246° West 368 423 12,900 -1,380 Descending Albuquerque Center
12:47PM 34.9350 -106.5692 225° Southwest 299 344 10,600 -1,500 Descending Albuquerque Center
12:48PM 34.9061 -106.6317 241° Southwest 236 272 9,300 -1,560 Descending Albuquerque Center
12:49PM 34.9425 -106.6775 314° West 189 217 7,400 -1,500 Descending Albuquerque Center
12:50PM 34.9861 -106.6706 North 149 171 6,300 -1,080 Descending Albuquerque Center
12:52PM 35.0402 -106.6092 90° East  Level Estimated
12:59PM 35.0402 -106.6092 90° East  Level Estimated
01:00PM 35.0402 -106.6092 90° East  Level Estimated